Friday, November 17, 2017, 2:36 PM EST
Back to Local

KLCI, Laconia, Laconia Municipal Airport

Location: Laconia, NH, United States Lat: 43.567
Local Time: 2:36 PM EST (19:36 GMT) Lon: -71.417
Time Zone: US/Eastern Elev: 544 ft

Show me the last for .
Show Decoded

2017-11-17 13:56 METAR KLCI 171856Z AUTO 26009G16KT 10SM BKN028 01/M06 A2988 RMK AO2 SLP138
                 T00061056 FZRANO =
2017-11-17 13:42 METAR KLCI 171842Z AUTO 29008G18KT 230V320 10SM BKN028 00/M06 A2988 RMK AO2
                 FZRANO =
2017-11-17 13:17 METAR KLCI 171817Z AUTO 27011G21KT 240V300 10SM FEW028 00/M06 A2988 RMK AO2
                 FZRANO =
2017-11-17 12:56 METAR KLCI 171756Z AUTO 28012G19KT 240V310 10SM BKN028 01/M06 A2987 RMK AO2
                 SLP134 T00061056 10006 20000 57009 FZRANO =
2017-11-17 11:56 METAR KLCI 171656Z AUTO 28011G21KT 260V320 10SM OVC028 01/M06 A2988 RMK AO2
                 SLP137 T00061056 FZRANO =
2017-11-17 10:56 METAR KLCI 171556Z AUTO 28009G17KT 240V300 10SM OVC024 00/M05 A2989 RMK AO2
                 SLP141 T00001050 FZRANO =
2017-11-17 09:56 METAR KLCI 171456Z AUTO 28009G16KT 10SM OVC024 00/M05 A2990 RMK AO2 SLP144
                 T00001050 53023 FZRANO =
2017-11-17 08:56 METAR KLCI 171356Z AUTO 28012G18KT 10SM OVC026 00/M05 A2988 RMK AO2 SLP136
                 T00001050 FZRANO =
2017-11-17 07:56 METAR KLCI 171256Z AUTO 27012G18KT 10SM OVC026 00/M04 A2985 RMK AO2 SLP126
                 T00001044 FZRANO =
2017-11-17 06:56 METAR KLCI 171156Z AUTO 28010G21KT 240V320 10SM BKN026 OVC034 01/M04 A2983 RMK
                 AO2 SLP119 60000 70030 T00061039 10039 20006 51015 FZRANO =
2017-11-17 06:51 METAR KLCI 171151Z AUTO 27009G21KT 10SM BKN026 OVC034 01/M04 A2983 RMK AO2
                 FZRANO =
2017-11-17 05:56 METAR KLCI 171056Z AUTO 28010G17KT 250V310 10SM OVC033 01/M04 A2979 RMK AO2
                 RAE44SNB0958E08 SLP105 P0000 T00061039 FZRANO =
2017-11-17 05:49 METAR KLCI 171049Z AUTO 27007G19KT 10SM SCT029 OVC035 01/M04 A2978 RMK AO2
                 RAE44SNB0958E08 P0000 FZRANO =
2017-11-17 04:56 METAR KLCI 170956Z AUTO 28014G25KT 10SM -RA OVC029 01/M03 A2975 RMK AO2 RAB54
                 SLP092 P0000 T00111033 FZRANO =
2017-11-17 04:53 METAR KLCI 170953Z AUTO 28015G22KT 10SM OVC029 01/M03 A2975 RMK AO2 FZRANO =
2017-11-17 03:56 METAR KLCI 170856Z AUTO 28012G22KT 10SM OVC033 02/M03 A2972 RMK AO2 PK WND
                 26027/0758 SLP084 T00221028 53008 FZRANO =
2017-11-17 02:56 METAR KLCI 170756Z AUTO 27008G20KT 10SM FEW025 02/M01 A2969 RMK AO2 PK WND
                 25026/0745 SLP076 T00221011 FZRANO =
2017-11-17 02:52 METAR KLCI 170752Z AUTO 27010G26KT 10SM FEW025 02/M02 A2970 RMK AO2 PK WND
                 25026/0745 FZRANO =
2017-11-17 00:56 METAR KLCI 170556Z AUTO 27007KT 10SM FEW024 OVC100 04/01 A2967 RMK AO2 SLP065
                 60003 T00390011 10039 20028 55003 =
2017-11-16 23:56 METAR KLCI 170456Z AUTO 27004KT 10SM OVC026 03/03 A2966 RMK AO2 SLP064 T00330028
                 =
2017-11-16 23:41 METAR KLCI 170441Z AUTO 26003KT 10SM BKN028 OVC070 03/02 A2966 RMK AO2 =
2017-11-16 22:56 METAR KLCI 170356Z AUTO 23005KT 10SM OVC065 03/02 A2966 RMK AO2 SLP064 T00330022
                 400561028 =
2017-11-16 21:56 METAR KLCI 170256Z AUTO 27005KT 10SM CLR 03/02 A2967 RMK AO2 RAE08 SLP069 P0001
                 60003 T00280022 56006 =
2017-11-16 20:56 METAR KLCI 170156Z AUTO 00000KT 10SM -RA FEW008 BKN039 OVC045 03/03 A2968 RMK
                 AO2 RAB23 SLP072 P0002 T00330028 =
2017-11-16 20:50 METAR KLCI 170150Z AUTO 10006KT 10SM -RA FEW008 BKN026 OVC045 03/03 A2968 RMK
                 AO2 RAB23 PRESFR P0002 =
2017-11-16 20:17 METAR KLCI 170117Z AUTO 27011G15KT 10SM FEW008 OVC014 03/03 A2971 RMK AO2 =
2017-11-16 19:56 METAR KLCI 170056Z AUTO 00000KT 10SM BKN009 OVC014 03/03 A2969 RMK AO2 CIG
                 007V012 SLP073 T00330028 =
2017-11-16 19:34 METAR KLCI 170034Z AUTO 00000KT 10SM BKN007 OVC015 03/03 A2970 RMK AO2 =
2017-11-16 19:12 METAR KLCI 170012Z AUTO 00000KT 10SM FEW007 OVC013 04/03 A2970 RMK AO2 =
2017-11-16 18:56 METAR KLCI 162356Z AUTO 00000KT 10SM BKN007 OVC013 03/03 A2970 RMK AO2 SLP076
                 60011 T00330033 10050 20033 56001 =
2017-11-16 18:53 METAR KLCI 162353Z AUTO 00000KT 10SM BKN007 OVC013 03/03 A2970 RMK AO2 =
2017-11-16 18:15 METAR KLCI 162315Z AUTO 00000KT 10SM OVC005 04/03 A2970 RMK AO2 =
2017-11-16 17:56 METAR KLCI 162256Z AUTO 00000KT 10SM OVC007 04/03 A2970 RMK AO2 CIG 004V009
                 SLP076 T00390033 =
2017-11-16 17:51 METAR KLCI 162251Z AUTO 31003KT 10SM OVC007 04/03 A2971 RMK AO2 CIG 005V009 =
2017-11-16 16:56 METAR KLCI 162156Z AUTO 00000KT 10SM OVC005 04/03 A2971 RMK AO2 RAE27 CIG
                 004V009 SLP078 P0000 T00390033 =
2017-11-16 14:56 METAR KLCI 161956Z AUTO 03004KT 10SM -RA OVC005 04/04 A2973 RMK AO2 SLP085 P0001
                 T00440039 =

Support USWX by starting your Amazon purchase here.